This is the latest recevied weather packets stored in our database for station/object F5IOR-13. If no packets are shown the sender has not sent any weather packets the latest 10 day(s).
| Time | Temp. | Humidity | Pressure | Rain* | Wind** | Luminosity | Snow |
|---|---|---|---|---|---|---|---|
| 1777364302 | 13.33° C | 67% | 986.4 hPa | 0 mm | - | - | - |
| 1777363822 | 12.78° C | 69% | 986.4 hPa | 0 mm | - | - | - |
| 1777363342 | 12.78° C | 69% | 986.4 hPa | 0 mm | - | - | - |
| 1777363102 | 12.22° C | 72% | 986.5 hPa | 0 mm | - | - | - |
| 1777362862 | 12.22° C | 72% | 986.5 hPa | 0 mm | - | - | - |
| 1777362622 | 12.22° C | 72% | 986.5 hPa | 0 mm | - | - | - |
| 1777362382 | 12.22° C | 72% | 986.5 hPa | 0 mm | - | - | - |
| 1777362262 | 12.22° C | 72% | 986.5 hPa | 0 mm | - | - | - |
| 1777362142 | 12.22° C | 72% | 986.5 hPa | 0 mm | - | - | - |
| 1777362022 | 12.22° C | 72% | 986.5 hPa | 0 mm | - | - | - |
| 1777361902 | 12.22° C | 72% | 986.5 hPa | 0 mm | - | - | - |
| 1777361842 | 12.22° C | 72% | 986.5 hPa | 0 mm | - | - | - |
| 1777361782 | 12.22° C | 72% | 986.5 hPa | 0 mm | - | - | - |
| 1777361722 | 12.22° C | 72% | 986.5 hPa | 0 mm | - | - | - |
| 1777311503 | 21.11° C | 36% | 988.3 hPa | 0 mm | - | - | - |
| 1777304303 | 23.33° C | 25% | 989.3 hPa | 0 mm | - | - | - |
| 1777300703 | 23.33° C | 26% | 989.9 hPa | 0 mm | - | - | - |
| 1777295303 | 22.78° C | 29% | 990.7 hPa | 0 mm | - | - | - |
| 1777291703 | 22.22° C | 35% | 990.9 hPa | 0 mm | - | - | - |
| 1777288103 | 20.56° C | 43% | 991.2 hPa | 0 mm | - | - | - |
| 1777286303 | 20° C | 45% | 991.3 hPa | 0 mm | - | - | - |
| 1777284504 | 17.78° C | 56% | 991.9 hPa | 0 mm | - | - | - |
| 1777281743 | 15.56° C | 60% | 992.1 hPa | 0 mm | - | - | - |
| 1777280783 | 15° C | 63% | 992.1 hPa | 0 mm | - | - | - |
| 1777279823 | 13.89° C | 67% | 992.2 hPa | 0 mm | - | - | - |
* Rain latest hour (hover to see other rain measurements)
** Current wind speed in m/s (hover to see current wind gust speed)